sensor_id;sensor_type;location;lat;lon;timestamp;P1;durP1;ratioP1;P2;durP2;ratioP2
42598;SDS011;28225;42.714;23.860;2023-05-10T00:00:04;5.00;;;4.50;;
42598;SDS011;28225;42.714;23.860;2023-05-10T00:00:20;5.43;;;4.68;;
42598;SDS011;28225;42.714;23.860;2023-05-10T00:00:37;4.95;;;4.30;;
42598;SDS011;28225;42.714;23.860;2023-05-10T00:00:52;4.28;;;3.88;;
42598;SDS011;28225;42.714;23.860;2023-05-10T00:01:08;4.60;;;3.70;;
42598;SDS011;28225;42.714;23.860;2023-05-10T00:01:23;4.68;;;3.90;;
42598;SDS011;28225;42.714;23.860;2023-05-10T00:01:39;7.10;;;3.90;;
42598;SDS011;28225;42.714;23.860;2023-05-10T00:01:54;6.47;;;3.47;;
42598;SDS011;28225;42.714;23.860;2023-05-10T00:02:09;3.83;;;3.30;;
42598;SDS011;28225;42.714;23.860;2023-05-10T00:02:25;3.93;;;3.53;;
42598;SDS011;28225;42.714;23.860;2023-05-10T00:02:40;4.20;;;3.50;;
42598;SDS011;28225;42.714;23.860;2023-05-10T00:02:55;5.13;;;3.40;;
42598;SDS011;28225;42.714;23.860;2023-05-10T00:03:11;4.80;;;3.80;;
42598;SDS011;28225;42.714;23.860;2023-05-10T00:03:26;5.57;;;3.90;;
42598;SDS011;28225;42.714;23.860;2023-05-10T00:03:42;5.03;;;3.73;;
42598;SDS011;28225;42.714;23.860;2023-05-10T00:03:57;4.60;;;3.87;;
42598;SDS011;28225;42.714;23.860;2023-05-10T00:04:12;4.32;;;3.67;;
42598;SDS011;28225;42.714;23.860;2023-05-10T00:04:28;4.73;;;3.37;;
42598;SDS011;28225;42.714;23.860;2023-05-10T00:04:43;4.78;;;3.65;;
42598;SDS011;28225;42.714;23.860;2023-05-10T00:04:59;4.50;;;3.77;;
42598;SDS011;28225;42.714;23.860;2023-05-10T00:05:14;4.73;;;3.73;;
42598;SDS011;28225;42.714;23.860;2023-05-10T00:05:30;4.63;;;3.80;;
42598;SDS011;28225;42.714;23.860;2023-05-10T00:05:46;4.57;;;3.85;;
42598;SDS011;28225;42.714;23.860;2023-05-10T00:06:01;4.80;;;3.83;;
42598;SDS011;28225;42.714;23.860;2023-05-10T00:06:17;6.35;;;3.88;;
42598;SDS011;28225;42.714;23.860;2023-05-10T00:06:32;6.93;;;3.78;;
42598;SDS011;28225;42.714;23.860;2023-05-10T00:06:48;7.53;;;3.90;;
42598;SDS011;28225;42.714;23.860;2023-05-10T00:07:03;6.77;;;4.00;;
42598;SDS011;28225;42.714;23.860;2023-05-10T00:07:18;4.25;;;3.75;;
42598;SDS011;28225;42.714;23.860;2023-05-10T00:07:34;4.20;;;3.80;;
42598;SDS011;28225;42.714;23.860;2023-05-10T00:07:49;4.20;;;3.70;;
42598;SDS011;28225;42.714;23.860;2023-05-10T00:08:05;4.80;;;3.80;;
42598;SDS011;28225;42.714;23.860;2023-05-10T00:08:20;6.07;;;4.00;;
42598;SDS011;28225;42.714;23.860;2023-05-10T00:08:36;6.07;;;3.88;;
42598;SDS011;28225;42.714;23.860;2023-05-10T00:08:51;5.33;;;3.80;;
42598;SDS011;28225;42.714;23.860;2023-05-10T00:09:06;4.80;;;3.43;;
42598;SDS011;28225;42.714;23.860;2023-05-10T00:09:22;3.70;;;3.13;;
42598;SDS011;28225;42.714;23.860;2023-05-10T00:09:37;3.33;;;2.93;;
42598;SDS011;28225;42.714;23.860;2023-05-10T00:09:52;3.03;;;2.78;;
42598;SDS011;28225;42.714;23.860;2023-05-10T00:10:08;2.97;;;2.67;;
42598;SDS011;28225;42.714;23.860;2023-05-10T00:10:23;3.15;;;2.85;;
42598;SDS011;28225;42.714;23.860;2023-05-10T00:10:39;3.10;;;2.80;;
42598;SDS011;28225;42.714;23.860;2023-05-10T00:10:55;3.35;;;3.05;;
42598;SDS011;28225;42.714;23.860;2023-05-10T00:11:11;3.33;;;3.03;;
42598;SDS011;28225;42.714;23.860;2023-05-10T00:11:26;3.00;;;2.70;;
42598;SDS011;28225;42.714;23.860;2023-05-10T00:11:41;3.03;;;2.80;;
42598;SDS011;28225;42.714;23.860;2023-05-10T00:11:57;3.27;;;2.97;;
42598;SDS011;28225;42.714;23.860;2023-05-10T00:12:14;4.03;;;3.53;;
42598;SDS011;28225;42.714;23.860;2023-05-10T00:12:30;4.07;;;3.67;;
42598;SDS011;28225;42.714;23.860;2023-05-10T00:12:45;4.30;;;3.50;;
42598;SDS011;28225;42.714;23.860;2023-05-10T00:13:01;4.00;;;3.27;;
42598;SDS011;28225;42.714;23.860;2023-05-10T00:13:16;3.53;;;3.20;;
42598;SDS011;28225;42.714;23.860;2023-05-10T00:13:32;4.03;;;3.50;;
42598;SDS011;28225;42.714;23.860;2023-05-10T00:13:47;4.83;;;3.33;;
42598;SDS011;28225;42.714;23.860;2023-05-10T00:14:02;4.23;;;3.03;;
42598;SDS011;28225;42.714;23.860;2023-05-10T00:14:18;3.15;;;2.88;;
42598;SDS011;28225;42.714;23.860;2023-05-10T00:14:34;3.05;;;2.80;;
42598;SDS011;28225;42.714;23.860;2023-05-10T00:14:49;3.03;;;2.83;;
42598;SDS011;28225;42.714;23.860;2023-05-10T00:15:05;3.07;;;2.87;;
42598;SDS011;28225;42.714;23.860;2023-05-10T00:15:21;3.22;;;3.03;;
42598;SDS011;28225;42.714;23.860;2023-05-10T00:15:36;3.60;;;3.30;;
42598;SDS011;28225;42.714;23.860;2023-05-10T00:15:51;3.50;;;3.20;;
42598;SDS011;28225;42.714;23.860;2023-05-10T00:16:07;3.38;;;3.08;;
42598;SDS011;28225;42.714;23.860;2023-05-10T00:16:22;3.80;;;3.40;;
42598;SDS011;28225;42.714;23.860;2023-05-10T00:16:38;7.15;;;3.72;;
42598;SDS011;28225;42.714;23.860;2023-05-10T00:16:54;6.88;;;3.45;;
42598;SDS011;28225;42.714;23.860;2023-05-10T00:17:09;3.07;;;2.77;;
42598;SDS011;28225;42.714;23.860;2023-05-10T00:17:24;3.40;;;2.80;;
42598;SDS011;28225;42.714;23.860;2023-05-10T00:17:40;4.18;;;3.00;;
42598;SDS011;28225;42.714;23.860;2023-05-10T00:17:55;3.73;;;3.10;;
42598;SDS011;28225;42.714;23.860;2023-05-10T00:18:11;3.38;;;3.08;;
42598;SDS011;28225;42.714;23.860;2023-05-10T00:18:26;3.77;;;3.10;;
42598;SDS011;28225;42.714;23.860;2023-05-10T00:18:42;3.90;;;3.00;;
42598;SDS011;28225;42.714;23.860;2023-05-10T00:18:57;3.30;;;3.00;;
42598;SDS011;28225;42.714;23.860;2023-05-10T00:19:13;5.00;;;3.25;;
42598;SDS011;28225;42.714;23.860;2023-05-10T00:19:28;6.87;;;3.40;;
42598;SDS011;28225;42.714;23.860;2023-05-10T00:19:43;4.47;;;3.27;;
42598;SDS011;28225;42.714;23.860;2023-05-10T00:19:59;3.35;;;3.03;;
42598;SDS011;28225;42.714;23.860;2023-05-10T00:20:15;3.30;;;2.90;;
42598;SDS011;28225;42.714;23.860;2023-05-10T00:20:30;3.03;;;2.73;;
42598;SDS011;28225;42.714;23.860;2023-05-10T00:20:46;2.78;;;2.58;;
42598;SDS011;28225;42.714;23.860;2023-05-10T00:21:01;2.90;;;2.60;;
42598;SDS011;28225;42.714;23.860;2023-05-10T00:21:17;3.10;;;2.77;;
42598;SDS011;28225;42.714;23.860;2023-05-10T00:21:32;3.50;;;3.13;;
42598;SDS011;28225;42.714;23.860;2023-05-10T00:21:48;3.38;;;3.08;;
42598;SDS011;28225;42.714;23.860;2023-05-10T00:22:04;2.73;;;2.53;;
42598;SDS011;28225;42.714;23.860;2023-05-10T00:22:19;2.65;;;2.45;;
42598;SDS011;28225;42.714;23.860;2023-05-10T00:22:35;2.65;;;2.45;;
42598;SDS011;28225;42.714;23.860;2023-05-10T00:22:50;2.50;;;2.30;;
42598;SDS011;28225;42.714;23.860;2023-05-10T00:23:06;2.60;;;2.40;;
42598;SDS011;28225;42.714;23.860;2023-05-10T00:23:21;2.78;;;2.58;;
42598;SDS011;28225;42.714;23.860;2023-05-10T00:23:36;3.10;;;2.80;;
42598;SDS011;28225;42.714;23.860;2023-05-10T00:23:52;3.20;;;2.90;;
42598;SDS011;28225;42.714;23.860;2023-05-10T00:24:07;2.93;;;2.73;;
42598;SDS011;28225;42.714;23.860;2023-05-10T00:24:23;2.70;;;2.50;;
42598;SDS011;28225;42.714;23.860;2023-05-10T00:24:38;2.58;;;2.38;;
42598;SDS011;28225;42.714;23.860;2023-05-10T00:24:54;2.60;;;2.40;;
42598;SDS011;28225;42.714;23.860;2023-05-10T00:25:09;2.78;;;2.58;;
42598;SDS011;28225;42.714;23.860;2023-05-10T00:25:25;2.65;;;2.45;;
42598;SDS011;28225;42.714;23.860;2023-05-10T00:25:41;2.80;;;2.60;;
42598;SDS011;28225;42.714;23.860;2023-05-10T00:25:56;2.83;;;2.60;;
42598;SDS011;28225;42.714;23.860;2023-05-10T00:26:11;2.97;;;2.67;;
42598;SDS011;28225;42.714;23.860;2023-05-10T00:26:27;3.00;;;2.70;;
42598;SDS011;28225;42.714;23.860;2023-05-10T00:26:42;2.90;;;2.60;;
42598;SDS011;28225;42.714;23.860;2023-05-10T00:26:58;3.80;;;2.67;;
42598;SDS011;28225;42.714;23.860;2023-05-10T00:27:13;3.65;;;2.75;;
42598;SDS011;28225;42.714;23.860;2023-05-10T00:27:29;2.70;;;2.50;;
42598;SDS011;28225;42.714;23.860;2023-05-10T00:27:44;2.25;;;2.05;;
42598;SDS011;28225;42.714;23.860;2023-05-10T00:27:59;2.00;;;1.90;;
42598;SDS011;28225;42.714;23.860;2023-05-10T00:28:16;1.90;;;1.80;;
42598;SDS011;28225;42.714;23.860;2023-05-10T00:28:31;2.00;;;1.80;;
42598;SDS011;28225;42.714;23.860;2023-05-10T00:28:47;2.00;;;1.90;;
42598;SDS011;28225;42.714;23.860;2023-05-10T00:29:02;2.20;;;2.03;;
42598;SDS011;28225;42.714;23.860;2023-05-10T00:29:17;2.35;;;2.15;;
42598;SDS011;28225;42.714;23.860;2023-05-10T00:29:33;2.13;;;2.00;;
42598;SDS011;28225;42.714;23.860;2023-05-10T00:29:48;3.30;;;2.00;;
42598;SDS011;28225;42.714;23.860;2023-05-10T00:30:04;2.93;;;1.90;;
42598;SDS011;28225;42.714;23.860;2023-05-10T00:30:20;2.20;;;2.00;;
42598;SDS011;28225;42.714;23.860;2023-05-10T00:30:35;2.95;;;2.03;;
42598;SDS011;28225;42.714;23.860;2023-05-10T00:30:51;3.50;;;2.13;;
42598;SDS011;28225;42.714;23.860;2023-05-10T00:31:06;3.10;;;2.30;;
42598;SDS011;28225;42.714;23.860;2023-05-10T00:31:22;3.03;;;2.40;;
42598;SDS011;28225;42.714;23.860;2023-05-10T00:31:37;3.20;;;2.50;;
42598;SDS011;28225;42.714;23.860;2023-05-10T00:31:52;2.40;;;2.20;;
42598;SDS011;28225;42.714;23.860;2023-05-10T00:32:08;2.40;;;2.20;;
42598;SDS011;28225;42.714;23.860;2023-05-10T00:32:23;2.50;;;2.30;;
42598;SDS011;28225;42.714;23.860;2023-05-10T00:32:38;2.55;;;2.35;;
42598;SDS011;28225;42.714;23.860;2023-05-10T00:32:54;2.50;;;2.30;;
42598;SDS011;28225;42.714;23.860;2023-05-10T00:33:09;2.38;;;2.17;;
42598;SDS011;28225;42.714;23.860;2023-05-10T00:33:26;2.17;;;1.98;;
42598;SDS011;28225;42.714;23.860;2023-05-10T00:33:41;1.98;;;1.80;;
42598;SDS011;28225;42.714;23.860;2023-05-10T00:33:57;1.83;;;1.70;;
42598;SDS011;28225;42.714;23.860;2023-05-10T00:34:12;1.80;;;1.70;;
42598;SDS011;28225;42.714;23.860;2023-05-10T00:34:28;2.00;;;1.87;;
42598;SDS011;28225;42.714;23.860;2023-05-10T00:34:43;2.28;;;2.08;;
42598;SDS011;28225;42.714;23.860;2023-05-10T00:34:59;2.13;;;2.00;;
42598;SDS011;28225;42.714;23.860;2023-05-10T00:35:14;2.13;;;1.93;;
42598;SDS011;28225;42.714;23.860;2023-05-10T00:35:30;2.50;;;2.13;;
42598;SDS011;28225;42.714;23.860;2023-05-10T00:35:46;2.15;;;2.00;;
42598;SDS011;28225;42.714;23.860;2023-05-10T00:36:01;1.90;;;1.80;;
42598;SDS011;28225;42.714;23.860;2023-05-10T00:36:16;2.15;;;2.03;;
42598;SDS011;28225;42.714;23.860;2023-05-10T00:36:32;2.20;;;2.00;;
42598;SDS011;28225;42.714;23.860;2023-05-10T00:36:47;1.93;;;1.83;;
42598;SDS011;28225;42.714;23.860;2023-05-10T00:37:02;2.65;;;2.00;;
42598;SDS011;28225;42.714;23.860;2023-05-10T00:37:18;2.50;;;1.93;;
42598;SDS011;28225;42.714;23.860;2023-05-10T00:37:33;2.10;;;1.90;;
42598;SDS011;28225;42.714;23.860;2023-05-10T00:37:48;2.13;;;1.92;;
42598;SDS011;28225;42.714;23.860;2023-05-10T00:38:04;2.17;;;1.97;;
42598;SDS011;28225;42.714;23.860;2023-05-10T00:38:19;2.17;;;1.97;;
42598;SDS011;28225;42.714;23.860;2023-05-10T00:38:35;2.00;;;1.80;;
42598;SDS011;28225;42.714;23.860;2023-05-10T00:38:50;1.80;;;1.70;;
42598;SDS011;28225;42.714;23.860;2023-05-10T00:39:06;1.80;;;1.70;;
42598;SDS011;28225;42.714;23.860;2023-05-10T00:39:21;1.80;;;1.70;;
42598;SDS011;28225;42.714;23.860;2023-05-10T00:39:36;2.27;;;2.07;;
42598;SDS011;28225;42.714;23.860;2023-05-10T00:39:52;2.17;;;1.95;;
42598;SDS011;28225;42.714;23.860;2023-05-10T00:40:08;1.80;;;1.63;;
42598;SDS011;28225;42.714;23.860;2023-05-10T00:40:23;1.87;;;1.50;;
42598;SDS011;28225;42.714;23.860;2023-05-10T00:40:39;2.03;;;1.83;;
42598;SDS011;28225;42.714;23.860;2023-05-10T00:40:54;2.40;;;2.20;;
42598;SDS011;28225;42.714;23.860;2023-05-10T00:41:11;2.20;;;2.00;;
42598;SDS011;28225;42.714;23.860;2023-05-10T00:41:26;2.03;;;1.90;;
42598;SDS011;28225;42.714;23.860;2023-05-10T00:41:42;2.78;;;2.05;;
42598;SDS011;28225;42.714;23.860;2023-05-10T00:41:57;2.77;;;2.20;;
42598;SDS011;28225;42.714;23.860;2023-05-10T00:42:13;2.13;;;2.03;;
42598;SDS011;28225;42.714;23.860;2023-05-10T00:42:28;2.50;;;2.30;;
42598;SDS011;28225;42.714;23.860;2023-05-10T00:42:43;2.80;;;2.50;;
42598;SDS011;28225;42.714;23.860;2023-05-10T00:42:59;2.58;;;2.38;;
42598;SDS011;28225;42.714;23.860;2023-05-10T00:43:16;2.70;;;1.92;;
42598;SDS011;28225;42.714;23.860;2023-05-10T00:43:31;2.40;;;1.90;;
42598;SDS011;28225;42.714;23.860;2023-05-10T00:43:46;2.13;;;1.93;;
42598;SDS011;28225;42.714;23.860;2023-05-10T00:44:02;2.95;;;2.03;;
42598;SDS011;28225;42.714;23.860;2023-05-10T00:44:17;3.13;;;2.40;;
42598;SDS011;28225;42.714;23.860;2023-05-10T00:44:33;2.50;;;2.30;;
42598;SDS011;28225;42.714;23.860;2023-05-10T00:44:48;2.60;;;2.40;;
42598;SDS011;28225;42.714;23.860;2023-05-10T00:45:04;2.83;;;2.63;;
42598;SDS011;28225;42.714;23.860;2023-05-10T00:45:20;2.83;;;2.53;;
42598;SDS011;28225;42.714;23.860;2023-05-10T00:45:35;2.80;;;2.47;;
42598;SDS011;28225;42.714;23.860;2023-05-10T00:45:51;2.83;;;2.60;;
42598;SDS011;28225;42.714;23.860;2023-05-10T00:46:07;2.97;;;2.63;;
42598;SDS011;28225;42.714;23.860;2023-05-10T00:46:23;3.33;;;2.57;;
42598;SDS011;28225;42.714;23.860;2023-05-10T00:46:38;3.28;;;2.63;;
42598;SDS011;28225;42.714;23.860;2023-05-10T00:46:54;2.73;;;2.33;;
42598;SDS011;28225;42.714;23.860;2023-05-10T00:47:09;3.72;;;2.70;;
42598;SDS011;28225;42.714;23.860;2023-05-10T00:47:25;4.53;;;2.87;;
42598;SDS011;28225;42.714;23.860;2023-05-10T00:47:40;3.65;;;2.60;;
42598;SDS011;28225;42.714;23.860;2023-05-10T00:47:56;2.60;;;2.40;;
42598;SDS011;28225;42.714;23.860;2023-05-10T00:48:11;2.50;;;2.30;;
42598;SDS011;28225;42.714;23.860;2023-05-10T00:48:28;3.35;;;2.40;;
42598;SDS011;28225;42.714;23.860;2023-05-10T00:48:43;3.50;;;2.40;;
42598;SDS011;28225;42.714;23.860;2023-05-10T00:48:59;2.60;;;2.40;;
42598;SDS011;28225;42.714;23.860;2023-05-10T00:49:15;3.00;;;2.45;;
42598;SDS011;28225;42.714;23.860;2023-05-10T00:49:31;2.87;;;2.30;;
42598;SDS011;28225;42.714;23.860;2023-05-10T00:49:46;2.58;;;2.38;;
42598;SDS011;28225;42.714;23.860;2023-05-10T00:50:02;2.72;;;2.47;;
42598;SDS011;28225;42.714;23.860;2023-05-10T00:50:18;2.67;;;2.47;;
42598;SDS011;28225;42.714;23.860;2023-05-10T00:50:33;2.67;;;2.47;;
42598;SDS011;28225;42.714;23.860;2023-05-10T00:50:49;2.77;;;2.50;;
42598;SDS011;28225;42.714;23.860;2023-05-10T00:51:04;2.83;;;2.45;;
42598;SDS011;28225;42.714;23.860;2023-05-10T00:51:20;2.97;;;2.50;;
42598;SDS011;28225;42.714;23.860;2023-05-10T00:51:35;2.67;;;2.47;;
42598;SDS011;28225;42.714;23.860;2023-05-10T00:51:51;2.50;;;2.30;;
42598;SDS011;28225;42.714;23.860;2023-05-10T00:52:06;2.70;;;2.40;;
42598;SDS011;28225;42.714;23.860;2023-05-10T00:52:22;2.72;;;2.47;;
42598;SDS011;28225;42.714;23.860;2023-05-10T00:52:38;2.65;;;2.45;;
42598;SDS011;28225;42.714;23.860;2023-05-10T00:52:54;2.50;;;2.27;;
42598;SDS011;28225;42.714;23.860;2023-05-10T00:53:10;2.75;;;2.20;;
42598;SDS011;28225;42.714;23.860;2023-05-10T00:53:25;2.50;;;2.28;;
42598;SDS011;28225;42.714;23.860;2023-05-10T00:53:41;2.80;;;2.30;;
42598;SDS011;28225;42.714;23.860;2023-05-10T00:53:56;3.15;;;2.53;;
42598;SDS011;28225;42.714;23.860;2023-05-10T00:54:12;3.33;;;2.57;;
42598;SDS011;28225;42.714;23.860;2023-05-10T00:54:29;4.03;;;2.75;;
42598;SDS011;28225;42.714;23.860;2023-05-10T00:54:44;3.92;;;2.95;;
42598;SDS011;28225;42.714;23.860;2023-05-10T00:55:00;3.97;;;2.90;;
42598;SDS011;28225;42.714;23.860;2023-05-10T00:55:15;3.80;;;2.75;;
42598;SDS011;28225;42.714;23.860;2023-05-10T00:55:30;3.30;;;2.80;;
42598;SDS011;28225;42.714;23.860;2023-05-10T00:55:46;3.10;;;2.80;;
42598;SDS011;28225;42.714;23.860;2023-05-10T00:56:02;3.97;;;2.77;;
42598;SDS011;28225;42.714;23.860;2023-05-10T00:56:18;4.82;;;2.88;;
42598;SDS011;28225;42.714;23.860;2023-05-10T00:56:37;2.88;;;2.60;;
42598;SDS011;28225;42.714;23.860;2023-05-10T00:56:53;2.80;;;2.40;;
42598;SDS011;28225;42.714;23.860;2023-05-10T00:57:08;3.13;;;2.63;;
42598;SDS011;28225;42.714;23.860;2023-05-10T00:57:24;3.63;;;2.90;;
42598;SDS011;28225;42.714;23.860;2023-05-10T00:57:39;3.15;;;2.85;;
42598;SDS011;28225;42.714;23.860;2023-05-10T00:57:55;11.03;;;3.53;;
42598;SDS011;28225;42.714;23.860;2023-05-10T00:58:10;10.90;;;3.40;;
42598;SDS011;28225;42.714;23.860;2023-05-10T00:58:27;2.85;;;2.50;;
42598;SDS011;28225;42.714;23.860;2023-05-10T00:58:43;3.33;;;2.65;;
42598;SDS011;28225;42.714;23.860;2023-05-10T00:58:58;3.40;;;2.78;;
42598;SDS011;28225;42.714;23.860;2023-05-10T00:59:17;3.00;;;2.70;;
42598;SDS011;28225;42.714;23.860;2023-05-10T00:59:33;2.90;;;2.70;;
42598;SDS011;28225;42.714;23.860;2023-05-10T00:59:49;2.80;;;2.60;;
42598;SDS011;28225;42.714;23.860;2023-05-10T01:00:04;2.97;;;2.70;;
42598;SDS011;28225;42.714;23.860;2023-05-10T01:00:26;3.10;;;2.80;;
42598;SDS011;28225;42.714;23.860;2023-05-10T01:00:41;3.07;;;2.87;;
42598;SDS011;28225;42.714;23.860;2023-05-10T01:00:57;3.00;;;2.70;;
42598;SDS011;28225;42.714;23.860;2023-05-10T01:01:12;3.00;;;2.75;;
42598;SDS011;28225;42.714;23.860;2023-05-10T01:01:29;2.85;;;2.65;;
42598;SDS011;28225;42.714;23.860;2023-05-10T01:01:45;3.13;;;2.83;;
42598;SDS011;28225;42.714;23.860;2023-05-10T01:02:01;3.20;;;2.90;;
42598;SDS011;28225;42.714;23.860;2023-05-10T01:02:17;3.00;;;2.80;;
42598;SDS011;28225;42.714;23.860;2023-05-10T01:02:33;3.20;;;2.90;;
42598;SDS011;28225;42.714;23.860;2023-05-10T01:02:49;3.25;;;2.95;;
42598;SDS011;28225;42.714;23.860;2023-05-10T01:03:05;3.10;;;2.83;;
42598;SDS011;28225;42.714;23.860;2023-05-10T01:03:20;2.80;;;2.60;;
42598;SDS011;28225;42.714;23.860;2023-05-10T01:03:36;2.80;;;2.60;;
42598;SDS011;28225;42.714;23.860;2023-05-10T01:03:51;3.15;;;2.85;;
42598;SDS011;28225;42.714;23.860;2023-05-10T01:04:07;4.40;;;3.00;;
42598;SDS011;28225;42.714;23.860;2023-05-10T01:04:23;3.75;;;2.80;;
42598;SDS011;28225;42.714;23.860;2023-05-10T01:04:40;2.88;;;2.67;;
42598;SDS011;28225;42.714;23.860;2023-05-10T01:04:56;3.00;;;2.80;;
42598;SDS011;28225;42.714;23.860;2023-05-10T01:05:11;3.10;;;2.57;;
42598;SDS011;28225;42.714;23.860;2023-05-10T01:05:27;3.50;;;2.40;;
42598;SDS011;28225;42.714;23.860;2023-05-10T01:05:42;3.77;;;2.77;;
42598;SDS011;28225;42.714;23.860;2023-05-10T01:05:57;3.70;;;2.90;;
42598;SDS011;28225;42.714;23.860;2023-05-10T01:06:13;3.13;;;2.83;;
42598;SDS011;28225;42.714;23.860;2023-05-10T01:06:28;2.90;;;2.70;;
42598;SDS011;28225;42.714;23.860;2023-05-10T01:06:44;2.85;;;2.63;;
42598;SDS011;28225;42.714;23.860;2023-05-10T01:06:59;3.00;;;2.70;;
42598;SDS011;28225;42.714;23.860;2023-05-10T01:07:14;3.03;;;2.80;;
42598;SDS011;28225;42.714;23.860;2023-05-10T01:07:30;3.30;;;3.00;;
42598;SDS011;28225;42.714;23.860;2023-05-10T01:07:46;3.22;;;2.92;;
42598;SDS011;28225;42.714;23.860;2023-05-10T01:08:01;3.10;;;2.80;;
42598;SDS011;28225;42.714;23.860;2023-05-10T01:08:17;3.95;;;2.85;;
42598;SDS011;28225;42.714;23.860;2023-05-10T01:08:33;3.85;;;3.00;;
42598;SDS011;28225;42.714;23.860;2023-05-10T01:08:48;3.43;;;3.13;;
42598;SDS011;28225;42.714;23.860;2023-05-10T01:09:04;4.53;;;3.25;;
42598;SDS011;28225;42.714;23.860;2023-05-10T01:09:21;3.50;;;2.95;;
42598;SDS011;28225;42.714;23.860;2023-05-10T01:09:37;2.72;;;2.53;;
42598;SDS011;28225;42.714;23.860;2023-05-10T01:09:52;3.13;;;2.83;;
42598;SDS011;28225;42.714;23.860;2023-05-10T01:10:07;3.50;;;3.20;;
42598;SDS011;28225;42.714;23.860;2023-05-10T01:10:24;3.72;;;3.17;;
42598;SDS011;28225;42.714;23.860;2023-05-10T01:10:39;3.93;;;3.47;;
42598;SDS011;28225;42.714;23.860;2023-05-10T01:10:55;4.10;;;3.70;;
42598;SDS011;28225;42.714;23.860;2023-05-10T01:11:10;4.33;;;3.93;;
42598;SDS011;28225;42.714;23.860;2023-05-10T01:11:26;4.25;;;3.85;;
42598;SDS011;28225;42.714;23.860;2023-05-10T01:11:41;4.40;;;4.00;;
42598;SDS011;28225;42.714;23.860;2023-05-10T01:11:57;5.53;;;4.13;;
42598;SDS011;28225;42.714;23.860;2023-05-10T01:12:13;5.07;;;4.05;;
42598;SDS011;28225;42.714;23.860;2023-05-10T01:12:28;6.10;;;3.90;;
42598;SDS011;28225;42.714;23.860;2023-05-10T01:12:44;5.77;;;3.77;;
42598;SDS011;28225;42.714;23.860;2023-05-10T01:13:00;3.90;;;3.60;;
42598;SDS011;28225;42.714;23.860;2023-05-10T01:13:23;7.40;;;4.00;;
42598;SDS011;28225;42.714;23.860;2023-05-10T01:13:50;3.85;;;3.55;;
42598;SDS011;28225;42.714;23.860;2023-05-10T01:14:09;6.50;;;3.83;;
42598;SDS011;28225;42.714;23.860;2023-05-10T01:14:25;7.63;;;3.83;;
42598;SDS011;28225;42.714;23.860;2023-05-10T01:14:41;6.43;;;3.80;;
42598;SDS011;28225;42.714;23.860;2023-05-10T01:14:56;6.00;;;3.87;;
42598;SDS011;28225;42.714;23.860;2023-05-10T01:15:12;3.88;;;3.58;;
42598;SDS011;28225;42.714;23.860;2023-05-10T01:15:29;4.10;;;3.70;;
42598;SDS011;28225;42.714;23.860;2023-05-10T01:15:45;4.05;;;3.65;;
42598;SDS011;28225;42.714;23.860;2023-05-10T01:16:01;3.67;;;3.38;;
42598;SDS011;28225;42.714;23.860;2023-05-10T01:16:18;4.05;;;3.65;;
42598;SDS011;28225;42.714;23.860;2023-05-10T01:16:35;4.20;;;3.65;;
42598;SDS011;28225;42.714;23.860;2023-05-10T01:16:51;4.03;;;3.30;;
42598;SDS011;28225;42.714;23.860;2023-05-10T01:17:08;3.25;;;2.95;;
42598;SDS011;28225;42.714;23.860;2023-05-10T01:17:24;3.17;;;2.97;;
42598;SDS011;28225;42.714;23.860;2023-05-10T01:17:41;3.50;;;3.20;;
42598;SDS011;28225;42.714;23.860;2023-05-10T01:17:57;3.53;;;3.22;;
42598;SDS011;28225;42.714;23.860;2023-05-10T01:18:13;3.28;;;2.97;;
42598;SDS011;28225;42.714;23.860;2023-05-10T01:18:30;3.05;;;2.75;;
42598;SDS011;28225;42.714;23.860;2023-05-10T01:18:50;3.15;;;2.85;;
42598;SDS011;28225;42.714;23.860;2023-05-10T01:19:08;3.70;;;2.70;;
42598;SDS011;28225;42.714;23.860;2023-05-10T01:19:28;3.53;;;2.90;;
42598;SDS011;28225;42.714;23.860;2023-05-10T01:19:44;3.83;;;3.00;;
42598;SDS011;28225;42.714;23.860;2023-05-10T01:20:00;3.50;;;2.80;;
42598;SDS011;28225;42.714;23.860;2023-05-10T01:20:15;3.20;;;2.90;;
42598;SDS011;28225;42.714;23.860;2023-05-10T01:20:32;3.30;;;3.00;;
42598;SDS011;28225;42.714;23.860;2023-05-10T01:20:57;3.70;;;3.03;;
42598;SDS011;28225;42.714;23.860;2023-05-10T01:24:40;2.60;;;2.40;;
42598;SDS011;28225;42.714;23.860;2023-05-10T01:27:17;3.50;;;3.20;;
42598;SDS011;28225;42.714;23.860;2023-05-10T01:30:48;3.88;;;3.47;;
42598;SDS011;28225;42.714;23.860;2023-05-10T01:32:28;4.13;;;3.20;;
42598;SDS011;28225;42.714;23.860;2023-05-10T01:33:26;3.90;;;3.20;;
42598;SDS011;28225;42.714;23.860;2023-05-10T01:33:32;3.97;;;3.28;;
42598;SDS011;28225;42.714;23.860;2023-05-10T01:34:07;3.45;;;2.97;;
42598;SDS011;28225;42.714;23.860;2023-05-10T01:34:25;3.88;;;3.30;;
42598;SDS011;28225;42.714;23.860;2023-05-10T01:34:47;3.70;;;3.05;;
42598;SDS011;28225;42.714;23.860;2023-05-10T01:35:30;3.08;;;2.88;;
42598;SDS011;28225;42.714;23.860;2023-05-10T01:36:23;3.58;;;3.28;;
42598;SDS011;28225;42.714;23.860;2023-05-10T01:36:48;3.60;;;3.30;;
42598;SDS011;28225;42.714;23.860;2023-05-10T01:37:11;3.65;;;3.33;;
42598;SDS011;28225;42.714;23.860;2023-05-10T01:37:33;3.53;;;3.22;;
42598;SDS011;28225;42.714;23.860;2023-05-10T01:38:16;4.13;;;3.30;;
42598;SDS011;28225;42.714;23.860;2023-05-10T01:39:13;3.58;;;3.28;;
42598;SDS011;28225;42.714;23.860;2023-05-10T01:39:35;3.15;;;2.85;;
42598;SDS011;28225;42.714;23.860;2023-05-10T01:40:19;4.07;;;3.08;;
42598;SDS011;28225;42.714;23.860;2023-05-10T01:40:37;3.88;;;3.55;;
42598;SDS011;28225;42.714;23.860;2023-05-10T01:42:19;3.15;;;2.85;;
42598;SDS011;28225;42.714;23.860;2023-05-10T01:42:40;3.90;;;3.38;;
42598;SDS011;28225;42.714;23.860;2023-05-10T01:43:04;3.83;;;2.92;;
42598;SDS011;28225;42.714;23.860;2023-05-10T01:43:25;3.53;;;3.22;;
42598;SDS011;28225;42.714;23.860;2023-05-10T01:44:11;3.45;;;2.70;;
42598;SDS011;28225;42.714;23.860;2023-05-10T01:44:35;2.50;;;2.30;;
42598;SDS011;28225;42.714;23.860;2023-05-10T01:46:41;3.33;;;2.75;;
42598;SDS011;28225;42.714;23.860;2023-05-10T01:46:56;3.38;;;3.08;;
42598;SDS011;28225;42.714;23.860;2023-05-10T01:47:06;3.20;;;2.77;;
42598;SDS011;28225;42.714;23.860;2023-05-10T01:47:44;2.40;;;2.20;;
42598;SDS011;28225;42.714;23.860;2023-05-10T01:48:05;2.72;;;2.42;;
42598;SDS011;28225;42.714;23.860;2023-05-10T01:48:22;3.28;;;2.67;;
42598;SDS011;28225;42.714;23.860;2023-05-10T01:48:39;2.85;;;2.50;;
42598;SDS011;28225;42.714;23.860;2023-05-10T01:49:01;3.10;;;2.80;;
42598;SDS011;28225;42.714;23.860;2023-05-10T01:49:23;3.65;;;2.78;;
42598;SDS011;28225;42.714;23.860;2023-05-10T01:49:45;4.18;;;2.90;;
42598;SDS011;28225;42.714;23.860;2023-05-10T01:50:05;2.83;;;2.53;;
42598;SDS011;28225;42.714;23.860;2023-05-10T01:50:24;4.00;;;2.78;;
42598;SDS011;28225;42.714;23.860;2023-05-10T01:50:43;4.00;;;3.20;;
42598;SDS011;28225;42.714;23.860;2023-05-10T01:51:00;4.10;;;2.80;;
42598;SDS011;28225;42.714;23.860;2023-05-10T01:51:16;4.17;;;2.80;;
42598;SDS011;28225;42.714;23.860;2023-05-10T01:51:38;3.58;;;2.83;;
42598;SDS011;28225;42.714;23.860;2023-05-10T01:52:06;4.20;;;3.05;;
42598;SDS011;28225;42.714;23.860;2023-05-10T01:52:36;3.95;;;3.28;;
42598;SDS011;28225;42.714;23.860;2023-05-10T01:52:53;4.20;;;3.00;;
42598;SDS011;28225;42.714;23.860;2023-05-10T01:53:11;3.88;;;2.95;;
42598;SDS011;28225;42.714;23.860;2023-05-10T01:53:28;5.32;;;3.22;;
42598;SDS011;28225;42.714;23.860;2023-05-10T01:53:44;5.00;;;2.90;;
42598;SDS011;28225;42.714;23.860;2023-05-10T01:54:02;4.72;;;3.08;;